PWSweather.com
Personal Weather Stations
Station Observations
RRFWEATHER
Rail Road Flat, Rail Road Flat, CA 95248

Rail Road FlatRail Road Flat, CA 95248

Lat: 38.306238, Lon: -120.514548

Elevation: 2808

Station Type: Davis Vantage Pro2

http://www.railroadflat.org

High Low Average
Temperature 65.9°F18.8°F 46.8°F8.2°F 56.5°F13.6°F
Dew Point 55.7°F13.2°F 44.9°F7.2°F 51.0°F10.6°F
Winds 8.1 mph -13.0 mph - Calm Calm 1.1 mph 1.8 mph
Wind Gusts 11.5 mph18.5 mph -- 2.4 mph3.9 mph
Humidity 94% 66% 82%
Pressure 29.98 in1015.20 in 29.86 in1011.20 in -
Precipitation 0.00 in0.00 in - -
Hour Temp Dew Point Humidity Winds Wind Gusts Pressure Precip Precip Rate Daily Precip Total
12:00 AM 49.1°F9.5°C 46.9°F8.3°C 92% Calm Calm -- 29.95 in1014.2 mb - 0.00 in0.0 mm 0.00 in0.0 mm
12:10 AM 48.9°F9.4°C 46.7°F8.2°C 92% Calm Calm -- 29.95 in1014.2 mb - 0.00 in0.0 mm 0.00 in0.0 mm
12:15 AM 48.9°F9.4°C 46.7°F8.2°C 92% Calm Calm -- 29.95 in1014.2 mb - 0.00 in0.0 mm 0.00 in0.0 mm
12:20 AM 48.8°F9.3°C 46.6°F8.1°C 92% Calm Calm -- 29.96 in1014.6 mb - 0.00 in0.0 mm 0.00 in0.0 mm
12:25 AM 48.8°F9.3°C 46.6°F8.1°C 92% Calm Calm -- 29.95 in1014.2 mb - 0.00 in0.0 mm 0.00 in0.0 mm
12:30 AM 48.8°F9.3°C 46.6°F8.1°C 92% Calm Calm -- 29.95 in1014.2 mb - 0.00 in0.0 mm 0.00 in0.0 mm
12:35 AM 48.8°F9.3°C 46.6°F8.1°C 92% Calm Calm -- 29.95 in1014.2 mb - 0.00 in0.0 mm 0.00 in0.0 mm
12:40 AM 48.8°F9.3°C 46.6°F8.1°C 92% Calm Calm -- 29.95 in1014.2 mb - 0.00 in0.0 mm 0.00 in0.0 mm
12:45 AM 48.7°F9.3°C 46.5°F8.1°C 92% Calm Calm -- 29.95 in1014.2 mb - 0.00 in0.0 mm 0.00 in0.0 mm
12:50 AM 48.5°F9.2°C 46.3°F7.9°C 92% Calm Calm 3.5 mph5.6 kmh 29.95 in1014.2 mb - 0.00 in0.0 mm 0.00 in0.0 mm
12:55 AM 48.4°F9.1°C 46.2°F7.9°C 92% 2.3 mph N3.7 kmh N 3.5 mph5.6 kmh 29.96 in1014.6 mb - 0.00 in0.0 mm 0.00 in0.0 mm
01:00 AM 48.2°F9.0°C 46.0°F7.8°C 92% 2.3 mph N3.7 kmh N 2.3 mph3.7 kmh 29.95 in1014.2 mb - 0.00 in0.0 mm 0.00 in0.0 mm
01:10 AM 48.2°F9.0°C 46.3°F7.9°C 93% 1.2 mph N1.9 kmh N 2.3 mph3.7 kmh 29.96 in1014.6 mb - 0.00 in0.0 mm 0.00 in0.0 mm
01:15 AM 48.3°F9.1°C 46.4°F8.0°C 93% 2.3 mph N3.7 kmh N 2.3 mph3.7 kmh 29.96 in1014.6 mb - 0.00 in0.0 mm 0.00 in0.0 mm
01:20 AM 48.3°F9.1°C 46.4°F8.0°C 93% 2.3 mph N3.7 kmh N 3.5 mph5.6 kmh 29.96 in1014.6 mb - 0.00 in0.0 mm 0.00 in0.0 mm
01:25 AM 48.4°F9.1°C 46.5°F8.1°C 93% 1.2 mph N1.9 kmh N 2.3 mph3.7 kmh 29.96 in1014.6 mb - 0.00 in0.0 mm 0.00 in0.0 mm
01:30 AM 48.6°F9.2°C 46.6°F8.1°C 93% 2.3 mph N3.7 kmh N 2.3 mph3.7 kmh 29.96 in1014.6 mb - 0.00 in0.0 mm 0.00 in0.0 mm
01:35 AM 48.6°F9.2°C 46.7°F8.2°C 93% 2.3 mph N3.7 kmh N 3.5 mph5.6 kmh 29.96 in1014.6 mb - 0.00 in0.0 mm 0.00 in0.0 mm
01:40 AM 48.8°F9.3°C 46.9°F8.3°C 93% Calm Calm -- 29.96 in1014.6 mb - 0.00 in0.0 mm 0.00 in0.0 mm
01:45 AM 48.8°F9.3°C 46.9°F8.3°C 93% Calm Calm -- 29.96 in1014.6 mb - 0.00 in0.0 mm 0.00 in0.0 mm
01:50 AM 48.7°F9.3°C 46.5°F8.1°C 92% Calm Calm -- 29.96 in1014.6 mb - 0.00 in0.0 mm 0.00 in0.0 mm
01:55 AM 48.6°F9.2°C 46.4°F8.0°C 92% Calm Calm -- 29.95 in1014.2 mb - 0.00 in0.0 mm 0.00 in0.0 mm
02:00 AM 48.5°F9.2°C 46.6°F8.1°C 93% Calm Calm -- 29.96 in1014.6 mb - 0.00 in0.0 mm 0.00 in0.0 mm
02:10 AM 48.5°F9.2°C 46.6°F8.1°C 93% 1.2 mph N1.9 kmh N 2.3 mph3.7 kmh 29.96 in1014.6 mb - 0.00 in0.0 mm 0.00 in0.0 mm
02:15 AM 48.4°F9.1°C 46.5°F8.1°C 93% Calm Calm -- 29.96 in1014.6 mb - 0.00 in0.0 mm 0.00 in0.0 mm
02:20 AM 48.4°F9.1°C 46.5°F8.1°C 93% Calm Calm -- 29.96 in1014.6 mb - 0.00 in0.0 mm 0.00 in0.0 mm
02:25 AM 48.5°F9.2°C 46.5°F8.1°C 93% Calm Calm -- 29.96 in1014.6 mb - 0.00 in0.0 mm 0.00 in0.0 mm
02:30 AM 48.6°F9.2°C 46.6°F8.1°C 93% Calm Calm -- 29.96 in1014.6 mb - 0.00 in0.0 mm 0.00 in0.0 mm
02:35 AM 48.7°F9.3°C 46.8°F8.2°C 93% Calm Calm -- 29.96 in1014.6 mb - 0.00 in0.0 mm 0.00 in0.0 mm
02:40 AM 48.7°F9.3°C 46.8°F8.2°C 93% Calm Calm -- 29.96 in1014.6 mb - 0.00 in0.0 mm 0.00 in0.0 mm
02:45 AM 48.7°F9.3°C 46.5°F8.1°C 92% Calm Calm -- 29.96 in1014.6 mb - 0.00 in0.0 mm 0.00 in0.0 mm
02:50 AM 48.6°F9.2°C 46.4°F8.0°C 92% Calm Calm -- 29.96 in1014.6 mb - 0.00 in0.0 mm 0.00 in0.0 mm
02:55 AM 48.6°F9.2°C 46.7°F8.2°C 93% Calm Calm -- 29.96 in1014.6 mb - 0.00 in0.0 mm 0.00 in0.0 mm
03:00 AM 48.9°F9.4°C 46.9°F8.3°C 93% Calm Calm -- 29.96 in1014.6 mb - 0.00 in0.0 mm 0.00 in0.0 mm
03:10 AM 48.9°F9.4°C 46.7°F8.2°C 92% Calm Calm -- 29.96 in1014.6 mb - 0.00 in0.0 mm 0.00 in0.0 mm
03:15 AM 48.9°F9.4°C 46.7°F8.2°C 92% Calm Calm -- 29.96 in1014.6 mb - 0.00 in0.0 mm 0.00 in0.0 mm
03:20 AM 48.8°F9.3°C 46.6°F8.1°C 92% Calm Calm -- 29.96 in1014.6 mb - 0.00 in0.0 mm 0.00 in0.0 mm
03:25 AM 48.7°F9.3°C 46.5°F8.1°C 92% Calm Calm -- 29.96 in1014.6 mb - 0.00 in0.0 mm 0.00 in0.0 mm
03:30 AM 48.7°F9.3°C 46.8°F8.2°C 93% Calm Calm -- 29.96 in1014.6 mb - 0.00 in0.0 mm 0.00 in0.0 mm
03:35 AM 48.8°F9.3°C 46.6°F8.1°C 92% Calm Calm -- 29.96 in1014.6 mb - 0.00 in0.0 mm 0.00 in0.0 mm
03:40 AM 48.8°F9.3°C 46.9°F8.3°C 93% Calm Calm -- 29.96 in1014.6 mb - 0.00 in0.0 mm 0.00 in0.0 mm
03:45 AM 48.9°F9.4°C 46.9°F8.3°C 93% Calm Calm -- 29.96 in1014.6 mb - 0.00 in0.0 mm 0.00 in0.0 mm
03:50 AM 48.9°F9.4°C 46.9°F8.3°C 93% Calm Calm -- 29.96 in1014.6 mb - 0.00 in0.0 mm 0.00 in0.0 mm
03:55 AM 48.8°F9.3°C 46.6°F8.1°C 92% Calm Calm -- 29.96 in1014.6 mb - 0.00 in0.0 mm 0.00 in0.0 mm
04:00 AM 48.7°F9.3°C 46.5°F8.1°C 92% Calm Calm -- 29.96 in1014.6 mb - 0.00 in0.0 mm 0.00 in0.0 mm
04:10 AM 48.6°F9.2°C 46.7°F8.2°C 93% Calm Calm -- 29.96 in1014.6 mb - 0.00 in0.0 mm 0.00 in0.0 mm
04:15 AM 48.6°F9.2°C 46.6°F8.1°C 93% Calm Calm -- 29.95 in1014.2 mb - 0.00 in0.0 mm 0.00 in0.0 mm
04:20 AM 48.5°F9.2°C 46.6°F8.1°C 93% Calm Calm -- 29.95 in1014.2 mb - 0.00 in0.0 mm 0.00 in0.0 mm
04:25 AM 48.4°F9.1°C 46.5°F8.1°C 93% Calm Calm -- 29.95 in1014.2 mb - 0.00 in0.0 mm 0.00 in0.0 mm
04:30 AM 48.4°F9.1°C 46.4°F8.0°C 93% Calm Calm -- 29.95 in1014.2 mb - 0.00 in0.0 mm 0.00 in0.0 mm
04:35 AM 48.3°F9.1°C 46.4°F8.0°C 93% Calm Calm -- 29.95 in1014.2 mb - 0.00 in0.0 mm 0.00 in0.0 mm
04:40 AM 48.2°F9.0°C 46.0°F7.8°C 92% Calm Calm -- 29.96 in1014.6 mb - 0.00 in0.0 mm 0.00 in0.0 mm
04:45 AM 47.9°F8.8°C 45.7°F7.6°C 92% Calm Calm -- 29.96 in1014.6 mb - 0.00 in0.0 mm 0.00 in0.0 mm
04:50 AM 47.6°F8.7°C 45.3°F7.4°C 92% 1.2 mph N1.9 kmh N 2.3 mph3.7 kmh 29.96 in1014.6 mb - 0.00 in0.0 mm 0.00 in0.0 mm
04:55 AM 47.3°F8.5°C 45.4°F7.4°C 93% 2.3 mph N3.7 kmh N 3.5 mph5.6 kmh 29.96 in1014.6 mb - 0.00 in0.0 mm 0.00 in0.0 mm
05:00 AM 47.2°F8.4°C 45.3°F7.4°C 93% 2.3 mph N3.7 kmh N 3.5 mph5.6 kmh 29.96 in1014.6 mb - 0.00 in0.0 mm 0.00 in0.0 mm
05:10 AM 46.9°F8.3°C 45.0°F7.2°C 93% 1.2 mph N1.9 kmh N 3.5 mph5.6 kmh 29.96 in1014.6 mb - 0.00 in0.0 mm 0.00 in0.0 mm
05:15 AM 46.9°F8.3°C 45.0°F7.2°C 93% 2.3 mph N3.7 kmh N 2.3 mph3.7 kmh 29.96 in1014.6 mb - 0.00 in0.0 mm 0.00 in0.0 mm
05:20 AM 46.8°F8.2°C 44.9°F7.2°C 93% 1.2 mph N1.9 kmh N 2.3 mph3.7 kmh 29.96 in1014.6 mb - 0.00 in0.0 mm 0.00 in0.0 mm
05:25 AM 46.8°F8.2°C 44.9°F7.2°C 93% 1.2 mph N1.9 kmh N 2.3 mph3.7 kmh 29.96 in1014.6 mb - 0.00 in0.0 mm 0.00 in0.0 mm
05:30 AM 46.8°F8.2°C 45.2°F7.3°C 94% Calm Calm -- 29.96 in1014.6 mb - 0.00 in0.0 mm 0.00 in0.0 mm
05:35 AM 46.8°F8.2°C 45.2°F7.3°C 94% Calm Calm -- 29.96 in1014.6 mb - 0.00 in0.0 mm 0.00 in0.0 mm
05:40 AM 46.9°F8.3°C 45.3°F7.4°C 94% Calm Calm -- 29.96 in1014.6 mb - 0.00 in0.0 mm 0.00 in0.0 mm
05:45 AM 47.0°F8.3°C 45.3°F7.4°C 94% Calm Calm -- 29.96 in1014.6 mb - 0.00 in0.0 mm 0.00 in0.0 mm
05:50 AM 47.0°F8.3°C 45.4°F7.4°C 94% Calm Calm -- 29.96 in1014.6 mb - 0.00 in0.0 mm 0.00 in0.0 mm
05:55 AM 47.1°F8.4°C 45.5°F7.5°C 94% Calm Calm -- 29.95 in1014.2 mb - 0.00 in0.0 mm 0.00 in0.0 mm
06:00 AM 47.2°F8.4°C 45.3°F7.4°C 93% Calm Calm -- 29.96 in1014.6 mb - 0.00 in0.0 mm 0.00 in0.0 mm
06:10 AM 47.3°F8.5°C 45.4°F7.4°C 93% Calm Calm -- 29.96 in1014.6 mb - 0.00 in0.0 mm 0.00 in0.0 mm
06:15 AM 47.3°F8.5°C 45.4°F7.4°C 93% Calm Calm -- 29.96 in1014.6 mb - 0.00 in0.0 mm 0.00 in0.0 mm
06:20 AM 47.4°F8.6°C 45.5°F7.5°C 93% Calm Calm -- 29.96 in1014.6 mb - 0.00 in0.0 mm 0.00 in0.0 mm
06:25 AM 47.4°F8.6°C 45.5°F7.5°C 93% Calm Calm -- 29.96 in1014.6 mb - 0.00 in0.0 mm 0.00 in0.0 mm
06:30 AM 47.5°F8.6°C 45.6°F7.6°C 93% Calm Calm -- 29.96 in1014.6 mb - 0.00 in0.0 mm 0.00 in0.0 mm
06:35 AM 47.7°F8.7°C 46.0°F7.8°C 94% Calm Calm -- 29.96 in1014.6 mb - 0.00 in0.0 mm 0.00 in0.0 mm
06:40 AM 47.9°F8.8°C 46.3°F7.9°C 94% Calm Calm -- 29.96 in1014.6 mb - 0.00 in0.0 mm 0.00 in0.0 mm
06:45 AM 48.2°F9.0°C 46.2°F7.9°C 93% Calm Calm -- 29.96 in1014.6 mb - 0.00 in0.0 mm 0.00 in0.0 mm
06:50 AM 48.4°F9.1°C 46.5°F8.1°C 93% Calm Calm -- 29.96 in1014.6 mb - 0.00 in0.0 mm 0.00 in0.0 mm
06:55 AM 48.8°F9.3°C 47.2°F8.4°C 94% Calm Calm -- 29.96 in1014.6 mb - 0.00 in0.0 mm 0.00 in0.0 mm
07:00 AM 49.2°F9.6°C 47.3°F8.5°C 93% Calm Calm -- 29.97 in1014.9 mb - 0.00 in0.0 mm 0.00 in0.0 mm
07:10 AM 49.5°F9.7°C 47.3°F8.5°C 92% Calm Calm -- 29.96 in1014.6 mb - 0.00 in0.0 mm 0.00 in0.0 mm
07:15 AM 49.5°F9.7°C 47.3°F8.5°C 92% Calm Calm -- 29.97 in1014.9 mb - 0.00 in0.0 mm 0.00 in0.0 mm
07:20 AM 49.7°F9.8°C 47.5°F8.6°C 92% Calm Calm -- 29.96 in1014.6 mb - 0.00 in0.0 mm 0.00 in0.0 mm
07:25 AM 49.9°F9.9°C 47.7°F8.7°C 92% Calm Calm -- 29.97 in1014.9 mb - 0.00 in0.0 mm 0.00 in0.0 mm
07:30 AM 50.2°F10.1°C 48.0°F8.9°C 92% Calm Calm -- 29.97 in1014.9 mb - 0.00 in0.0 mm 0.00 in0.0 mm
07:35 AM 50.5°F10.3°C 48.2°F9.0°C 92% Calm Calm -- 29.97 in1014.9 mb - 0.00 in0.0 mm 0.00 in0.0 mm
07:40 AM 50.7°F10.4°C 48.5°F9.2°C 92% Calm Calm -- 29.97 in1014.9 mb - 0.00 in0.0 mm 0.00 in0.0 mm
07:45 AM 51.0°F10.6°C 48.8°F9.3°C 92% Calm Calm -- 29.97 in1014.9 mb - 0.00 in0.0 mm 0.00 in0.0 mm
07:50 AM 51.4°F10.8°C 48.8°F9.3°C 91% Calm Calm -- 29.97 in1014.9 mb - 0.00 in0.0 mm 0.00 in0.0 mm
07:55 AM 51.6°F10.9°C 48.7°F9.3°C 90% Calm Calm -- 29.97 in1014.9 mb - 0.00 in0.0 mm 0.00 in0.0 mm
08:00 AM 52.0°F11.1°C 48.8°F9.3°C 89% Calm Calm -- 29.97 in1014.9 mb - 0.00 in0.0 mm 0.00 in0.0 mm
08:10 AM 53.3°F11.8°C 50.4°F10.2°C 90% Calm Calm -- 29.97 in1014.9 mb - 0.00 in0.0 mm 0.00 in0.0 mm
08:15 AM 53.7°F12.1°C 49.6°F9.8°C 86% Calm Calm -- 29.97 in1014.9 mb - 0.00 in0.0 mm 0.00 in0.0 mm
08:20 AM 54.1°F12.3°C 50.3°F10.2°C 87% Calm Calm -- 29.97 in1014.9 mb - 0.00 in0.0 mm 0.00 in0.0 mm
08:25 AM 54.5°F12.5°C 50.1°F10.1°C 85% Calm Calm -- 29.97 in1014.9 mb - 0.00 in0.0 mm 0.00 in0.0 mm
08:30 AM 55.0°F12.8°C 49.9°F9.9°C 83% Calm Calm -- 29.97 in1014.9 mb - 0.00 in0.0 mm 0.00 in0.0 mm
08:35 AM 55.3°F12.9°C 49.6°F9.8°C 81% Calm Calm -- 29.97 in1014.9 mb - 0.00 in0.0 mm 0.00 in0.0 mm
08:40 AM 55.6°F13.1°C 50.2°F10.1°C 82% Calm Calm 3.5 mph5.6 kmh 29.97 in1014.9 mb - 0.00 in0.0 mm 0.00 in0.0 mm
08:45 AM 56.0°F13.3°C 50.9°F10.5°C 83% Calm Calm 3.5 mph5.6 kmh 29.96 in1014.6 mb - 0.00 in0.0 mm 0.00 in0.0 mm
08:50 AM 56.3°F13.5°C 50.6°F10.3°C 81% Calm Calm -- 29.97 in1014.9 mb - 0.00 in0.0 mm 0.00 in0.0 mm
08:55 AM 56.5°F13.6°C 50.4°F10.2°C 80% Calm Calm -- 29.97 in1014.9 mb - 0.00 in0.0 mm 0.00 in0.0 mm
09:00 AM 56.7°F13.7°C 50.9°F10.5°C 81% Calm Calm -- 29.97 in1014.9 mb - 0.00 in0.0 mm 0.00 in0.0 mm
09:10 AM 57.2°F14.0°C 52.4°F11.3°C 84% Calm Calm 2.3 mph3.7 kmh 29.97 in1014.9 mb - 0.00 in0.0 mm 0.00 in0.0 mm
09:15 AM 57.3°F14.1°C 51.9°F11.1°C 82% Calm Calm -- 29.97 in1014.9 mb - 0.00 in0.0 mm 0.00 in0.0 mm
09:20 AM 57.5°F14.2°C 52.4°F11.3°C 83% 1.2 mph S1.9 kmh S 2.3 mph3.7 kmh 29.97 in1014.9 mb - 0.00 in0.0 mm 0.00 in0.0 mm
09:25 AM 57.7°F14.3°C 52.6°F11.4°C 83% 2.3 mph S3.7 kmh S 4.6 mph7.4 kmh 29.97 in1014.9 mb - 0.00 in0.0 mm 0.00 in0.0 mm
09:30 AM 58.1°F14.5°C 53.0°F11.7°C 83% 3.5 mph SSW5.6 kmh SSW 4.6 mph7.4 kmh 29.97 in1014.9 mb - 0.00 in0.0 mm 0.00 in0.0 mm
09:35 AM 57.9°F14.4°C 52.4°F11.3°C 82% 1.2 mph WSW1.9 kmh WSW 3.5 mph5.6 kmh 29.97 in1014.9 mb - 0.00 in0.0 mm 0.00 in0.0 mm
09:40 AM 57.5°F14.2°C 52.4°F11.3°C 83% Calm Calm -- 29.97 in1014.9 mb - 0.00 in0.0 mm 0.00 in0.0 mm
09:45 AM 57.6°F14.2°C 52.1°F11.2°C 82% 2.3 mph S3.7 kmh S 4.6 mph7.4 kmh 29.97 in1014.9 mb - 0.00 in0.0 mm 0.00 in0.0 mm
09:50 AM 57.7°F14.3°C 52.2°F11.2°C 82% 2.3 mph S3.7 kmh S 4.6 mph7.4 kmh 29.98 in1015.2 mb - 0.00 in0.0 mm 0.00 in0.0 mm
09:55 AM 57.5°F14.2°C 52.7°F11.5°C 84% 1.2 mph S1.9 kmh S -- 29.97 in1014.9 mb - 0.00 in0.0 mm 0.00 in0.0 mm
10:00 AM 57.5°F14.2°C 52.7°F11.5°C 84% Calm Calm -- 29.97 in1014.9 mb - 0.00 in0.0 mm 0.00 in0.0 mm
10:10 AM 58.9°F14.9°C 53.7°F12.1°C 83% 1.2 mph S1.9 kmh S 3.5 mph5.6 kmh 29.97 in1014.9 mb - 0.00 in0.0 mm 0.00 in0.0 mm
10:15 AM 59.0°F15.0°C 52.8°F11.6°C 80% 1.2 mph SW1.9 kmh SW 4.6 mph7.4 kmh 29.97 in1014.9 mb - 0.00 in0.0 mm 0.00 in0.0 mm
10:20 AM 58.8°F14.9°C 52.7°F11.5°C 80% 1.2 mph S1.9 kmh S 3.5 mph5.6 kmh 29.97 in1014.9 mb - 0.00 in0.0 mm 0.00 in0.0 mm
10:25 AM 58.7°F14.8°C 52.6°F11.4°C 80% Calm Calm -- 29.97 in1014.9 mb - 0.00 in0.0 mm 0.00 in0.0 mm
10:30 AM 59.0°F15.0°C 52.5°F11.4°C 79% 1.2 mph S1.9 kmh S 4.6 mph7.4 kmh 29.97 in1014.9 mb - 0.00 in0.0 mm 0.00 in0.0 mm
10:35 AM 59.7°F15.4°C 53.2°F11.8°C 79% 3.5 mph SSW5.6 kmh SSW 4.6 mph7.4 kmh 29.97 in1014.9 mb - 0.00 in0.0 mm 0.00 in0.0 mm
10:40 AM 60.6°F15.9°C 52.6°F11.4°C 75% 3.5 mph S5.6 kmh S 5.8 mph9.3 kmh 29.97 in1014.9 mb - 0.00 in0.0 mm 0.00 in0.0 mm
10:45 AM 60.2°F15.7°C 52.2°F11.2°C 75% 3.5 mph S5.6 kmh S 4.6 mph7.4 kmh 29.97 in1014.9 mb - 0.00 in0.0 mm 0.00 in0.0 mm
10:50 AM 60.1°F15.6°C 52.6°F11.4°C 76% 2.3 mph SSW3.7 kmh SSW 3.5 mph5.6 kmh 29.97 in1014.9 mb - 0.00 in0.0 mm 0.00 in0.0 mm
10:55 AM 60.7°F15.9°C 53.0°F11.7°C 76% 2.3 mph SSW3.7 kmh SSW 4.6 mph7.4 kmh 29.97 in1014.9 mb - 0.00 in0.0 mm 0.00 in0.0 mm
11:00 AM 61.0°F16.1°C 53.4°F11.9°C 76% 1.2 mph SSW1.9 kmh SSW 3.5 mph5.6 kmh 29.97 in1014.9 mb - 0.00 in0.0 mm 0.00 in0.0 mm
11:10 AM 61.1°F16.2°C 52.8°F11.6°C 74% 1.2 mph SW1.9 kmh SW 3.5 mph5.6 kmh 29.97 in1014.9 mb - 0.00 in0.0 mm 0.00 in0.0 mm
11:15 AM 60.9°F16.1°C 52.6°F11.4°C 74% 2.3 mph W3.7 kmh W 8.1 mph13.0 kmh 29.97 in1014.9 mb - 0.00 in0.0 mm 0.00 in0.0 mm
11:20 AM 60.4°F15.8°C 52.8°F11.6°C 76% 2.3 mph SSW3.7 kmh SSW 4.6 mph7.4 kmh 29.97 in1014.9 mb - 0.00 in0.0 mm 0.00 in0.0 mm
11:25 AM 61.0°F16.1°C 53.0°F11.7°C 75% 3.5 mph S5.6 kmh S 5.8 mph9.3 kmh 29.97 in1014.9 mb - 0.00 in0.0 mm 0.00 in0.0 mm
11:30 AM 61.8°F16.6°C 54.5°F12.5°C 77% 2.3 mph S3.7 kmh S 8.1 mph13.0 kmh 29.97 in1014.9 mb - 0.00 in0.0 mm 0.00 in0.0 mm
11:35 AM 61.7°F16.5°C 53.7°F12.1°C 75% 4.6 mph SSW7.4 kmh SSW 11.5 mph18.5 kmh 29.97 in1014.9 mb - 0.00 in0.0 mm 0.00 in0.0 mm
11:40 AM 61.6°F16.4°C 53.3°F11.8°C 74% 3.5 mph W5.6 kmh W 9.2 mph14.8 kmh 29.97 in1014.9 mb - 0.00 in0.0 mm 0.00 in0.0 mm
11:45 AM 61.6°F16.4°C 53.3°F11.8°C 74% 1.2 mph SW1.9 kmh SW 5.8 mph9.3 kmh 29.97 in1014.9 mb - 0.00 in0.0 mm 0.00 in0.0 mm
11:50 AM 62.3°F16.8°C 53.9°F12.2°C 74% 3.5 mph W5.6 kmh W 4.6 mph7.4 kmh 29.97 in1014.9 mb - 0.00 in0.0 mm 0.00 in0.0 mm
11:55 AM 62.7°F17.1°C 54.3°F12.4°C 74% 3.5 mph SW5.6 kmh SW 4.6 mph7.4 kmh 29.97 in1014.9 mb - 0.00 in0.0 mm 0.00 in0.0 mm
12:00 PM 62.8°F17.1°C 54.4°F12.4°C 74% 4.6 mph S7.4 kmh S 6.9 mph11.1 kmh 29.97 in1014.9 mb - 0.00 in0.0 mm 0.00 in0.0 mm
12:10 PM 62.1°F16.7°C 54.1°F12.3°C 75% 3.5 mph SW5.6 kmh SW 4.6 mph7.4 kmh 29.97 in1014.9 mb - 0.00 in0.0 mm 0.00 in0.0 mm
12:15 PM 62.4°F16.9°C 54.3°F12.4°C 75% 4.6 mph SW7.4 kmh SW 6.9 mph11.1 kmh 29.97 in1014.9 mb - 0.00 in0.0 mm 0.00 in0.0 mm
12:20 PM 62.2°F16.8°C 54.5°F12.5°C 76% 5.8 mph S9.3 kmh S 11.5 mph18.5 kmh 29.97 in1014.9 mb - 0.00 in0.0 mm 0.00 in0.0 mm
12:25 PM 61.7°F16.5°C 54.1°F12.3°C 76% 4.6 mph WSW7.4 kmh WSW 5.8 mph9.3 kmh 29.97 in1014.9 mb - 0.00 in0.0 mm 0.00 in0.0 mm
12:30 PM 61.5°F16.4°C 54.3°F12.4°C 77% 4.6 mph WSW7.4 kmh WSW 5.8 mph9.3 kmh 29.97 in1014.9 mb - 0.00 in0.0 mm 0.00 in0.0 mm
12:35 PM 61.4°F16.3°C 54.1°F12.3°C 77% 3.5 mph SW5.6 kmh SW 8.1 mph13.0 kmh 29.97 in1014.9 mb - 0.00 in0.0 mm 0.00 in0.0 mm
12:40 PM 61.4°F16.3°C 54.5°F12.5°C 78% 3.5 mph SSW5.6 kmh SSW 5.8 mph9.3 kmh 29.97 in1014.9 mb - 0.00 in0.0 mm 0.00 in0.0 mm
12:45 PM 62.2°F16.8°C 55.6°F13.1°C 79% 2.3 mph WSW3.7 kmh WSW 3.5 mph5.6 kmh 29.97 in1014.9 mb - 0.00 in0.0 mm 0.00 in0.0 mm
12:50 PM 62.2°F16.8°C 54.6°F12.6°C 76% 4.6 mph SSW7.4 kmh SSW 11.5 mph18.5 kmh 29.97 in1014.9 mb - 0.00 in0.0 mm 0.00 in0.0 mm
12:55 PM 61.7°F16.5°C 54.8°F12.7°C 78% 3.5 mph SW5.6 kmh SW 8.1 mph13.0 kmh 29.97 in1014.9 mb - 0.00 in0.0 mm 0.00 in0.0 mm
01:00 PM 61.7°F16.5°C 54.8°F12.7°C 78% 1.2 mph WSW1.9 kmh WSW 4.6 mph7.4 kmh 29.97 in1014.9 mb - 0.00 in0.0 mm 0.00 in0.0 mm
01:10 PM 62.1°F16.7°C 54.4°F12.4°C 76% 4.6 mph W7.4 kmh W 8.1 mph13.0 kmh 29.97 in1014.9 mb - 0.00 in0.0 mm 0.00 in0.0 mm
01:15 PM 62.0°F16.7°C 54.0°F12.2°C 75% 5.8 mph WSW9.3 kmh WSW 5.8 mph9.3 kmh 29.96 in1014.6 mb - 0.00 in0.0 mm 0.00 in0.0 mm
01:20 PM 62.2°F16.8°C 54.5°F12.5°C 76% 3.5 mph WSW5.6 kmh WSW 6.9 mph11.1 kmh 29.96 in1014.6 mb - 0.00 in0.0 mm 0.00 in0.0 mm
01:25 PM 62.3°F16.8°C 55.0°F12.8°C 77% Calm Calm 3.5 mph5.6 kmh 29.96 in1014.6 mb - 0.00 in0.0 mm 0.00 in0.0 mm
01:30 PM 62.5°F16.9°C 54.8°F12.7°C 76% 2.3 mph SW3.7 kmh SW 3.5 mph5.6 kmh 29.96 in1014.6 mb - 0.00 in0.0 mm 0.00 in0.0 mm
01:35 PM 62.5°F16.9°C 54.8°F12.7°C 76% 2.3 mph S3.7 kmh S 5.8 mph9.3 kmh 29.96 in1014.6 mb - 0.00 in0.0 mm 0.00 in0.0 mm
01:40 PM 62.5°F16.9°C 54.4°F12.4°C 75% 2.3 mph WSW3.7 kmh WSW 3.5 mph5.6 kmh 29.96 in1014.6 mb - 0.00 in0.0 mm 0.00 in0.0 mm
01:45 PM 62.6°F17.0°C 55.0°F12.8°C 76% 1.2 mph SW1.9 kmh SW 3.5 mph5.6 kmh 29.95 in1014.2 mb - 0.00 in0.0 mm 0.00 in0.0 mm
01:50 PM 63.5°F17.5°C 55.1°F12.8°C 74% 3.5 mph SSW5.6 kmh SSW 10.4 mph16.7 kmh 29.95 in1014.2 mb - 0.00 in0.0 mm 0.00 in0.0 mm
01:55 PM 63.5°F17.5°C 54.7°F12.6°C 73% 8.1 mph S13.0 kmh S 10.4 mph16.7 kmh 29.95 in1014.2 mb - 0.00 in0.0 mm 0.00 in0.0 mm
02:00 PM 63.3°F17.4°C 54.5°F12.5°C 73% 4.6 mph WSW7.4 kmh WSW 6.9 mph11.1 kmh 29.95 in1014.2 mb - 0.00 in0.0 mm 0.00 in0.0 mm
02:10 PM 64.2°F17.9°C 54.6°F12.6°C 71% 1.2 mph SW1.9 kmh SW 1.2 mph1.9 kmh 29.95 in1014.2 mb - 0.00 in0.0 mm 0.00 in0.0 mm
02:15 PM 64.8°F18.2°C 55.5°F13.1°C 72% 3.5 mph S5.6 kmh S 6.9 mph11.1 kmh 29.95 in1014.2 mb - 0.00 in0.0 mm 0.00 in0.0 mm
02:20 PM 65.4°F18.6°C 55.7°F13.2°C 71% 4.6 mph S7.4 kmh S 6.9 mph11.1 kmh 29.95 in1014.2 mb - 0.00 in0.0 mm 0.00 in0.0 mm
02:25 PM 64.8°F18.2°C 54.8°F12.7°C 70% 3.5 mph S5.6 kmh S 4.6 mph7.4 kmh 29.95 in1014.2 mb - 0.00 in0.0 mm 0.00 in0.0 mm
02:30 PM 64.4°F18.0°C 54.4°F12.4°C 70% 2.3 mph W3.7 kmh W 3.5 mph5.6 kmh 29.95 in1014.2 mb - 0.00 in0.0 mm 0.00 in0.0 mm
02:35 PM 63.8°F17.7°C 54.2°F12.3°C 71% 4.6 mph S7.4 kmh S 6.9 mph11.1 kmh 29.94 in1013.9 mb - 0.00 in0.0 mm 0.00 in0.0 mm
02:40 PM 63.4°F17.4°C 54.5°F12.5°C 73% 1.2 mph S1.9 kmh S 8.1 mph13.0 kmh 29.94 in1013.9 mb - 0.00 in0.0 mm 0.00 in0.0 mm
02:45 PM 63.6°F17.6°C 55.1°F12.8°C 74% 1.2 mph WSW1.9 kmh WSW 6.9 mph11.1 kmh 29.94 in1013.9 mb - 0.00 in0.0 mm 0.00 in0.0 mm
02:50 PM 64.2°F17.9°C 54.2°F12.3°C 70% 4.6 mph S7.4 kmh S 8.1 mph13.0 kmh 29.94 in1013.9 mb - 0.00 in0.0 mm 0.00 in0.0 mm
02:55 PM 64.3°F17.9°C 54.7°F12.6°C 71% 3.5 mph SW5.6 kmh SW 4.6 mph7.4 kmh 29.94 in1013.9 mb - 0.00 in0.0 mm 0.00 in0.0 mm
03:00 PM 64.0°F17.8°C 54.4°F12.4°C 71% 3.5 mph W5.6 kmh W 8.1 mph13.0 kmh 29.94 in1013.9 mb - 0.00 in0.0 mm 0.00 in0.0 mm
03:10 PM 63.9°F17.7°C 55.1°F12.8°C 73% 1.2 mph SSW1.9 kmh SSW 5.8 mph9.3 kmh 29.94 in1013.9 mb - 0.00 in0.0 mm 0.00 in0.0 mm
03:15 PM 64.5°F18.1°C 54.1°F12.3°C 69% 5.8 mph WSW9.3 kmh WSW 8.1 mph13.0 kmh 29.94 in1013.9 mb - 0.00 in0.0 mm 0.00 in0.0 mm
03:20 PM 64.7°F18.2°C 54.3°F12.4°C 69% 3.5 mph S5.6 kmh S 6.9 mph11.1 kmh 29.93 in1013.5 mb - 0.00 in0.0 mm 0.00 in0.0 mm
03:25 PM 64.4°F18.0°C 53.6°F12.0°C 68% 4.6 mph SW7.4 kmh SW 8.1 mph13.0 kmh 29.93 in1013.5 mb - 0.00 in0.0 mm 0.00 in0.0 mm
03:30 PM 64.2°F17.9°C 53.4°F11.9°C 68% 3.5 mph W5.6 kmh W 5.8 mph9.3 kmh 29.93 in1013.5 mb - 0.00 in0.0 mm 0.00 in0.0 mm
03:35 PM 64.1°F17.8°C 53.7°F12.1°C 69% 3.5 mph WSW5.6 kmh WSW 6.9 mph11.1 kmh 29.93 in1013.5 mb - 0.00 in0.0 mm 0.00 in0.0 mm
03:40 PM 64.7°F18.2°C 53.8°F12.1°C 68% 1.2 mph WNW1.9 kmh WNW 4.6 mph7.4 kmh 29.93 in1013.5 mb - 0.00 in0.0 mm 0.00 in0.0 mm
03:45 PM 65.0°F18.3°C 54.6°F12.6°C 69% Calm Calm 3.5 mph5.6 kmh 29.92 in1013.2 mb - 0.00 in0.0 mm 0.00 in0.0 mm
03:50 PM 65.5°F18.6°C 54.2°F12.3°C 67% 2.3 mph W3.7 kmh W 8.1 mph13.0 kmh 29.92 in1013.2 mb - 0.00 in0.0 mm 0.00 in0.0 mm
03:55 PM 65.2°F18.4°C 53.6°F12.0°C 66% 1.2 mph W1.9 kmh W 6.9 mph11.1 kmh 29.92 in1013.2 mb - 0.00 in0.0 mm 0.00 in0.0 mm
04:00 PM 65.0°F18.3°C 53.7°F12.1°C 67% 1.2 mph SW1.9 kmh SW 4.6 mph7.4 kmh 29.92 in1013.2 mb - 0.00 in0.0 mm 0.00 in0.0 mm
04:10 PM 65.9°F18.8°C 54.7°F12.6°C 67% 1.2 mph NW1.9 kmh NW 3.5 mph5.6 kmh 29.91 in1012.9 mb - 0.00 in0.0 mm 0.00 in0.0 mm
04:15 PM 65.9°F18.8°C 55.0°F12.8°C 68% Calm Calm 2.3 mph3.7 kmh 29.91 in1012.9 mb - 0.00 in0.0 mm 0.00 in0.0 mm
04:20 PM 65.7°F18.7°C 54.9°F12.7°C 68% Calm Calm 3.5 mph5.6 kmh 29.91 in1012.9 mb - 0.00 in0.0 mm 0.00 in0.0 mm
04:25 PM 65.6°F18.7°C 54.8°F12.7°C 68% 3.5 mph WNW5.6 kmh WNW 8.1 mph13.0 kmh 29.91 in1012.9 mb - 0.00 in0.0 mm 0.00 in0.0 mm
04:30 PM 65.4°F18.6°C 54.2°F12.3°C 67% 2.3 mph WSW3.7 kmh WSW -- 29.91 in1012.9 mb - 0.00 in0.0 mm 0.00 in0.0 mm
04:35 PM 65.2°F18.4°C 54.0°F12.2°C 67% 4.6 mph W7.4 kmh W 9.2 mph14.8 kmh 29.91 in1012.9 mb - 0.00 in0.0 mm 0.00 in0.0 mm
04:40 PM 64.6°F18.1°C 54.6°F12.6°C 70% 2.3 mph SW3.7 kmh SW 2.3 mph3.7 kmh 29.90 in1012.5 mb - 0.00 in0.0 mm 0.00 in0.0 mm
04:45 PM 65.1°F18.4°C 54.3°F12.4°C 68% 1.2 mph SW1.9 kmh SW 3.5 mph5.6 kmh 29.91 in1012.9 mb - 0.00 in0.0 mm 0.00 in0.0 mm
04:50 PM 65.2°F18.4°C 54.0°F12.2°C 67% 2.3 mph SW3.7 kmh SW 3.5 mph5.6 kmh 29.90 in1012.5 mb - 0.00 in0.0 mm 0.00 in0.0 mm
04:55 PM 65.6°F18.7°C 54.3°F12.4°C 67% 2.3 mph W3.7 kmh W 5.8 mph9.3 kmh 29.90 in1012.5 mb - 0.00 in0.0 mm 0.00 in0.0 mm
05:00 PM 65.5°F18.6°C 53.8°F12.1°C 66% 1.2 mph W1.9 kmh W 3.5 mph5.6 kmh 29.90 in1012.5 mb - 0.00 in0.0 mm 0.00 in0.0 mm
05:10 PM 64.8°F18.2°C 53.5°F11.9°C 67% Calm Calm 3.5 mph5.6 kmh 29.90 in1012.5 mb - 0.00 in0.0 mm 0.00 in0.0 mm
05:15 PM 64.6°F18.1°C 53.4°F11.9°C 67% 3.5 mph W5.6 kmh W 11.5 mph18.5 kmh 29.90 in1012.5 mb - 0.00 in0.0 mm 0.00 in0.0 mm
05:20 PM 64.6°F18.1°C 54.2°F12.3°C 69% 3.5 mph WSW5.6 kmh WSW 3.5 mph5.6 kmh 29.90 in1012.5 mb - 0.00 in0.0 mm 0.00 in0.0 mm
05:25 PM 64.7°F18.2°C 54.3°F12.4°C 69% 2.3 mph SSW3.7 kmh SSW 5.8 mph9.3 kmh 29.89 in1012.2 mb - 0.00 in0.0 mm 0.00 in0.0 mm
05:30 PM 64.3°F17.9°C 53.9°F12.2°C 69% 1.2 mph SW1.9 kmh SW 3.5 mph5.6 kmh 29.89 in1012.2 mb - 0.00 in0.0 mm 0.00 in0.0 mm
05:35 PM 64.1°F17.8°C 54.5°F12.5°C 71% 1.2 mph SSW1.9 kmh SSW 3.5 mph5.6 kmh 29.89 in1012.2 mb - 0.00 in0.0 mm 0.00 in0.0 mm
05:40 PM 64.3°F17.9°C 53.9°F12.2°C 69% 1.2 mph S1.9 kmh S 5.8 mph9.3 kmh 29.89 in1012.2 mb - 0.00 in0.0 mm 0.00 in0.0 mm
05:45 PM 64.2°F17.9°C 53.8°F12.1°C 69% 1.2 mph W1.9 kmh W 1.2 mph1.9 kmh 29.89 in1012.2 mb - 0.00 in0.0 mm 0.00 in0.0 mm
05:50 PM 64.3°F17.9°C 53.9°F12.2°C 69% 1.2 mph WSW1.9 kmh WSW 9.2 mph14.8 kmh 29.89 in1012.2 mb - 0.00 in0.0 mm 0.00 in0.0 mm
05:55 PM 64.3°F17.9°C 53.5°F11.9°C 68% 2.3 mph W3.7 kmh W 5.8 mph9.3 kmh 29.89 in1012.2 mb - 0.00 in0.0 mm 0.00 in0.0 mm
06:00 PM 64.0°F17.8°C 53.2°F11.8°C 68% 3.5 mph WSW5.6 kmh WSW 6.9 mph11.1 kmh 29.89 in1012.2 mb - 0.00 in0.0 mm 0.00 in0.0 mm
06:10 PM 63.3°F17.4°C 53.3°F11.8°C 70% 1.2 mph W1.9 kmh W 5.8 mph9.3 kmh 29.89 in1012.2 mb - 0.00 in0.0 mm 0.00 in0.0 mm
06:15 PM 62.9°F17.2°C 53.7°F12.1°C 72% 2.3 mph WSW3.7 kmh WSW 6.9 mph11.1 kmh 29.88 in1011.9 mb - 0.00 in0.0 mm 0.00 in0.0 mm
06:20 PM 62.6°F17.0°C 53.5°F11.9°C 72% 2.3 mph W3.7 kmh W 3.5 mph5.6 kmh 29.89 in1012.2 mb - 0.00 in0.0 mm 0.00 in0.0 mm
06:25 PM 62.4°F16.9°C 53.3°F11.8°C 72% 2.3 mph W3.7 kmh W 9.2 mph14.8 kmh 29.89 in1012.2 mb - 0.00 in0.0 mm 0.00 in0.0 mm
06:30 PM 62.2°F16.8°C 53.4°F11.9°C 73% 1.2 mph W1.9 kmh W 3.5 mph5.6 kmh 29.89 in1012.2 mb - 0.00 in0.0 mm 0.00 in0.0 mm
06:35 PM 62.0°F16.7°C 53.2°F11.8°C 73% 1.2 mph W1.9 kmh W 3.5 mph5.6 kmh 29.89 in1012.2 mb - 0.00 in0.0 mm 0.00 in0.0 mm
06:40 PM 61.9°F16.6°C 53.5°F11.9°C 74% Calm Calm -- 29.88 in1011.9 mb - 0.00 in0.0 mm 0.00 in0.0 mm
06:45 PM 61.8°F16.6°C 53.4°F11.9°C 74% Calm Calm -- 29.88 in1011.9 mb - 0.00 in0.0 mm 0.00 in0.0 mm
06:50 PM 61.9°F16.6°C 53.5°F11.9°C 74% Calm Calm -- 29.88 in1011.9 mb - 0.00 in0.0 mm 0.00 in0.0 mm
06:55 PM 62.1°F16.7°C 54.1°F12.3°C 75% Calm Calm 3.5 mph5.6 kmh 29.88 in1011.9 mb - 0.00 in0.0 mm 0.00 in0.0 mm
07:00 PM 62.3°F16.8°C 53.9°F12.2°C 74% Calm Calm 3.5 mph5.6 kmh 29.88 in1011.9 mb - 0.00 in0.0 mm 0.00 in0.0 mm
07:10 PM 62.5°F16.9°C 54.1°F12.3°C 74% Calm Calm -- 29.89 in1012.2 mb - 0.00 in0.0 mm 0.00 in0.0 mm
07:15 PM 62.5°F16.9°C 54.5°F12.5°C 75% Calm Calm -- 29.89 in1012.2 mb - 0.00 in0.0 mm 0.00 in0.0 mm
07:20 PM 62.5°F16.9°C 54.4°F12.4°C 75% Calm Calm -- 29.89 in1012.2 mb - 0.00 in0.0 mm 0.00 in0.0 mm
07:25 PM 62.3°F16.8°C 54.2°F12.3°C 75% Calm Calm -- 29.89 in1012.2 mb - 0.00 in0.0 mm 0.00 in0.0 mm
07:30 PM 62.1°F16.7°C 54.1°F12.3°C 75% Calm Calm -- 29.89 in1012.2 mb - 0.00 in0.0 mm 0.00 in0.0 mm
07:35 PM 61.9°F16.6°C 53.9°F12.2°C 75% Calm Calm -- 29.89 in1012.2 mb - 0.00 in0.0 mm 0.00 in0.0 mm
07:40 PM 61.6°F16.4°C 53.6°F12.0°C 75% Calm Calm -- 29.88 in1011.9 mb - 0.00 in0.0 mm 0.00 in0.0 mm
07:45 PM 61.3°F16.3°C 53.7°F12.1°C 76% Calm Calm -- 29.89 in1012.2 mb - 0.00 in0.0 mm 0.00 in0.0 mm
07:50 PM 60.9°F16.1°C 53.3°F11.8°C 76% Calm Calm -- 29.89 in1012.2 mb - 0.00 in0.0 mm 0.00 in0.0 mm
08:00 PM 60.4°F15.8°C 53.2°F11.8°C 77% Calm Calm -- 29.89 in1012.2 mb - 0.00 in0.0 mm 0.00 in0.0 mm
08:10 PM 60.1°F15.6°C 53.2°F11.8°C 78% Calm Calm -- 29.89 in1012.2 mb - 0.00 in0.0 mm 0.00 in0.0 mm
08:15 PM 59.9°F15.5°C 53.4°F11.9°C 79% Calm Calm -- 29.89 in1012.2 mb - 0.00 in0.0 mm 0.00 in0.0 mm
08:20 PM 59.8°F15.4°C 53.2°F11.8°C 79% Calm Calm -- 29.88 in1011.9 mb - 0.00 in0.0 mm 0.00 in0.0 mm
08:25 PM 59.6°F15.3°C 53.1°F11.7°C 79% Calm Calm -- 29.88 in1011.9 mb - 0.00 in0.0 mm 0.00 in0.0 mm
08:30 PM 59.5°F15.3°C 53.3°F11.8°C 80% Calm Calm -- 29.88 in1011.9 mb - 0.00 in0.0 mm 0.00 in0.0 mm
08:35 PM 59.2°F15.1°C 52.7°F11.5°C 79% Calm Calm -- 29.88 in1011.9 mb - 0.00 in0.0 mm 0.00 in0.0 mm
08:40 PM 59.1°F15.1°C 53.0°F11.7°C 80% Calm Calm -- 29.88 in1011.9 mb - 0.00 in0.0 mm 0.00 in0.0 mm
08:45 PM 58.9°F14.9°C 53.1°F11.7°C 81% Calm Calm -- 29.88 in1011.9 mb - 0.00 in0.0 mm 0.00 in0.0 mm
08:50 PM 58.6°F14.8°C 52.8°F11.6°C 81% Calm Calm -- 29.88 in1011.9 mb - 0.00 in0.0 mm 0.00 in0.0 mm
08:55 PM 58.4°F14.7°C 52.6°F11.4°C 81% Calm Calm -- 29.88 in1011.9 mb - 0.00 in0.0 mm 0.00 in0.0 mm
09:00 PM 58.2°F14.6°C 52.7°F11.5°C 82% Calm Calm -- 29.88 in1011.9 mb - 0.00 in0.0 mm 0.00 in0.0 mm
09:10 PM 58.1°F14.5°C 52.6°F11.4°C 82% Calm Calm -- 29.89 in1012.2 mb - 0.00 in0.0 mm 0.00 in0.0 mm
09:15 PM 58.1°F14.5°C 52.6°F11.4°C 82% Calm Calm -- 29.89 in1012.2 mb - 0.00 in0.0 mm 0.00 in0.0 mm
09:20 PM 57.9°F14.4°C 52.5°F11.4°C 82% Calm Calm -- 29.89 in1012.2 mb - 0.00 in0.0 mm 0.00 in0.0 mm
09:25 PM 57.7°F14.3°C 52.6°F11.4°C 83% Calm Calm -- 29.89 in1012.2 mb - 0.00 in0.0 mm 0.00 in0.0 mm
09:30 PM 57.4°F14.1°C 52.3°F11.3°C 83% Calm Calm -- 29.89 in1012.2 mb - 0.00 in0.0 mm 0.00 in0.0 mm
09:35 PM 57.2°F14.0°C 52.4°F11.3°C 84% Calm Calm -- 29.89 in1012.2 mb - 0.00 in0.0 mm 0.00 in0.0 mm
09:40 PM 57.0°F13.9°C 52.2°F11.2°C 84% Calm Calm -- 29.89 in1012.2 mb - 0.00 in0.0 mm 0.00 in0.0 mm
09:45 PM 56.9°F13.8°C 52.4°F11.3°C 85% Calm Calm -- 29.90 in1012.5 mb - 0.00 in0.0 mm 0.00 in0.0 mm
09:50 PM 56.8°F13.8°C 52.3°F11.3°C 85% Calm Calm -- 29.90 in1012.5 mb - 0.00 in0.0 mm 0.00 in0.0 mm
09:55 PM 56.6°F13.7°C 52.5°F11.4°C 86% Calm Calm -- 29.90 in1012.5 mb - 0.00 in0.0 mm 0.00 in0.0 mm
10:00 PM 56.4°F13.6°C 52.3°F11.3°C 86% Calm Calm -- 29.90 in1012.5 mb - 0.00 in0.0 mm 0.00 in0.0 mm
10:10 PM 56.1°F13.4°C 52.3°F11.3°C 87% Calm Calm -- 29.89 in1012.2 mb - 0.00 in0.0 mm 0.00 in0.0 mm
10:15 PM 56.1°F13.4°C 52.3°F11.3°C 87% Calm Calm -- 29.89 in1012.2 mb - 0.00 in0.0 mm 0.00 in0.0 mm
10:20 PM 56.1°F13.4°C 52.3°F11.3°C 87% Calm Calm -- 29.89 in1012.2 mb - 0.00 in0.0 mm 0.00 in0.0 mm
10:25 PM 56.0°F13.3°C 52.2°F11.2°C 87% Calm Calm -- 29.89 in1012.2 mb - 0.00 in0.0 mm 0.00 in0.0 mm
10:30 PM 56.0°F13.3°C 52.2°F11.2°C 87% Calm Calm -- 29.89 in1012.2 mb - 0.00 in0.0 mm 0.00 in0.0 mm
10:35 PM 55.8°F13.2°C 52.0°F11.1°C 87% Calm Calm -- 29.89 in1012.2 mb - 0.00 in0.0 mm 0.00 in0.0 mm
10:40 PM 55.6°F13.1°C 51.8°F11.0°C 87% Calm Calm -- 29.89 in1012.2 mb - 0.00 in0.0 mm 0.00 in0.0 mm
10:45 PM 55.4°F13.0°C 51.6°F10.9°C 87% Calm Calm -- 29.89 in1012.2 mb - 0.00 in0.0 mm 0.00 in0.0 mm
10:50 PM 55.4°F13.0°C 51.9°F11.1°C 88% Calm Calm -- 29.89 in1012.2 mb - 0.00 in0.0 mm 0.00 in0.0 mm
10:55 PM 55.4°F13.0°C 51.6°F10.9°C 87% Calm Calm -- 29.88 in1011.9 mb - 0.00 in0.0 mm 0.00 in0.0 mm
11:00 PM 55.5°F13.1°C 52.0°F11.1°C 88% Calm Calm -- 29.88 in1011.9 mb - 0.00 in0.0 mm 0.00 in0.0 mm
11:10 PM 55.4°F13.0°C 51.6°F10.9°C 87% Calm Calm -- 29.88 in1011.9 mb - 0.00 in0.0 mm 0.00 in0.0 mm
11:15 PM 55.2°F12.9°C 51.7°F10.9°C 88% Calm Calm -- 29.88 in1011.9 mb - 0.00 in0.0 mm 0.00 in0.0 mm
11:20 PM 55.1°F12.8°C 51.6°F10.9°C 88% Calm Calm -- 29.87 in1011.5 mb - 0.00 in0.0 mm 0.00 in0.0 mm
11:25 PM 55.3°F12.9°C 51.8°F11.0°C 88% Calm Calm 2.3 mph3.7 kmh 29.87 in1011.5 mb - 0.00 in0.0 mm 0.00 in0.0 mm
11:30 PM 56.1°F13.4°C 52.0°F11.1°C 86% Calm Calm -- 29.87 in1011.5 mb - 0.00 in0.0 mm 0.00 in0.0 mm
11:35 PM 56.4°F13.6°C 52.3°F11.3°C 86% Calm Calm -- 29.87 in1011.5 mb - 0.00 in0.0 mm 0.00 in0.0 mm
11:40 PM 56.5°F13.6°C 52.0°F11.1°C 85% Calm Calm -- 29.87 in1011.5 mb - 0.00 in0.0 mm 0.00 in0.0 mm
11:45 PM 56.8°F13.8°C 52.3°F11.3°C 85% Calm Calm -- 29.86 in1011.2 mb - 0.00 in0.0 mm 0.00 in0.0 mm
11:50 PM 56.8°F13.8°C 52.3°F11.3°C 85% Calm Calm -- 29.87 in1011.5 mb - 0.00 in0.0 mm 0.00 in0.0 mm
11:55 PM 56.6°F13.7°C 52.1°F11.2°C 85% Calm Calm -- 29.86 in1011.2 mb - 0.00 in0.0 mm 0.00 in0.0 mm